createdAt,value
2022-12-31T00:04:52.080Z,6.48
2022-12-31T00:10:00.409Z,6.49
2022-12-31T00:15:09.692Z,6.51
2022-12-31T00:20:18.399Z,6.54
2022-12-31T00:25:27.744Z,6.57
2022-12-31T00:30:35.909Z,6.63
2022-12-31T00:35:43.954Z,6.70
2022-12-31T00:40:52.826Z,6.79
2022-12-31T00:46:01.083Z,6.88
2022-12-31T00:51:11.618Z,6.98
2022-12-31T00:56:22.702Z,7.07
2022-12-31T01:01:33.291Z,7.15
2022-12-31T01:06:42.155Z,7.22
2022-12-31T01:11:51.975Z,7.28
2022-12-31T01:17:00.174Z,7.31
2022-12-31T01:22:08.349Z,7.35
2022-12-31T01:27:16.706Z,7.38
2022-12-31T01:32:23.875Z,7.42
2022-12-31T01:37:32.099Z,7.45
2022-12-31T01:42:40.013Z,7.47
2022-12-31T01:47:51.755Z,7.50
2022-12-31T01:53:03.908Z,7.51
2022-12-31T01:58:17.079Z,7.54
2022-12-31T02:03:28.186Z,7.56
2022-12-31T02:08:41.987Z,7.59
2022-12-31T02:13:56.522Z,7.60
2022-12-31T02:19:20.451Z,7.63
2022-12-31T02:24:59.246Z,7.66
2022-12-31T02:30:23.812Z,7.68
2022-12-31T02:35:35.362Z,7.70
2022-12-31T02:40:43.783Z,7.70
2022-12-31T02:45:59.122Z,7.72
2022-12-31T02:51:22.992Z,7.73
2022-12-31T02:56:40.208Z,7.74
2022-12-31T03:02:12.955Z,7.76
2022-12-31T03:07:25.335Z,7.78
2022-12-31T03:12:49.988Z,7.79
2022-12-31T03:18:03.044Z,7.80
2022-12-31T03:23:14.788Z,7.82
2022-12-31T03:28:25.097Z,7.83
2022-12-31T03:33:38.249Z,7.84
2022-12-31T03:38:51.201Z,7.85
2022-12-31T03:44:00.908Z,7.86
2022-12-31T03:49:09.972Z,7.89
2022-12-31T03:54:18.173Z,7.92
2022-12-31T03:59:26.302Z,7.95
2022-12-31T04:04:35.668Z,7.98
2022-12-31T04:09:43.737Z,8.02
2022-12-31T04:14:51.863Z,8.06
2022-12-31T04:20:00.172Z,8.10
2022-12-31T04:25:11.834Z,8.14
2022-12-31T04:30:19.056Z,8.20
2022-12-31T04:35:27.464Z,8.23
2022-12-31T04:40:35.705Z,8.28
2022-12-31T04:45:43.782Z,8.31
2022-12-31T04:50:51.960Z,8.33
2022-12-31T04:56:00.118Z,8.38
2022-12-31T05:01:08.887Z,8.40
2022-12-31T05:06:17.903Z,8.44
2022-12-31T05:11:26.197Z,8.51
2022-12-31T05:16:34.385Z,8.57
2022-12-31T05:21:42.525Z,8.63
2022-12-31T05:26:50.582Z,8.68
2022-12-31T05:31:58.770Z,8.71
2022-12-31T05:37:07.381Z,8.74
2022-12-31T05:42:17.263Z,8.79
2022-12-31T05:47:25.548Z,8.81
2022-12-31T05:52:33.732Z,8.84
2022-12-31T05:57:41.322Z,8.88
2022-12-31T06:02:49.592Z,8.91
2022-12-31T06:07:57.888Z,8.92
2022-12-31T06:13:06.322Z,8.94
2022-12-31T06:18:16.686Z,8.96
2022-12-31T06:23:24.925Z,8.97
2022-12-31T06:28:33.122Z,8.98
2022-12-31T06:33:41.520Z,8.99
2022-12-31T06:38:50.533Z,8.99
2022-12-31T06:43:57.773Z,9.00
2022-12-31T06:49:07.462Z,9.00
2022-12-31T06:54:15.940Z,9.00
2022-12-31T06:59:31.933Z,9.00
2022-12-31T07:05:15.949Z,9.02
2022-12-31T07:10:35.056Z,9.05
2022-12-31T07:16:01.167Z,9.09
2022-12-31T07:21:15.107Z,9.11
2022-12-31T07:26:37.298Z,9.15
2022-12-31T07:31:59.861Z,9.20
2022-12-31T07:37:15.913Z,9.23
2022-12-31T07:42:30.784Z,9.28
2022-12-31T07:47:40.260Z,9.33
2022-12-31T07:52:49.219Z,9.38
2022-12-31T07:58:03.028Z,9.43
2022-12-31T08:03:27.972Z,9.50
2022-12-31T08:08:44.983Z,9.56
2022-12-31T08:13:54.530Z,9.62
2022-12-31T08:19:03.551Z,9.69
2022-12-31T08:24:19.645Z,9.75
2022-12-31T08:29:42.470Z,9.82
2022-12-31T08:35:03.304Z,9.88
2022-12-31T08:40:21.664Z,9.94
2022-12-31T08:45:38.886Z,10.00
2022-12-31T08:50:48.033Z,10.06
2022-12-31T08:56:03.946Z,10.11
2022-12-31T09:01:15.675Z,10.17
2022-12-31T09:06:29.778Z,10.23
2022-12-31T09:11:50.216Z,10.30
2022-12-31T09:17:06.400Z,10.39
2022-12-31T09:22:16.496Z,10.48
2022-12-31T09:27:29.914Z,10.55
2022-12-31T09:32:48.680Z,10.62
2022-12-31T09:38:09.502Z,10.69
2022-12-31T09:44:06.067Z,10.75
2022-12-31T09:49:43.922Z,10.83
2022-12-31T09:55:02.817Z,10.91
2022-12-31T10:00:22.046Z,10.98
2022-12-31T10:05:47.610Z,11.04
2022-12-31T10:10:59.418Z,11.11
2022-12-31T10:16:33.501Z,11.17
2022-12-31T10:21:56.641Z,11.23
2022-12-31T10:27:29.151Z,11.30
2022-12-31T10:32:44.221Z,11.36
2022-12-31T10:38:03.645Z,11.43
2022-12-31T10:43:52.254Z,11.48
2022-12-31T10:49:28.885Z,11.54
2022-12-31T10:55:15.131Z,11.60
2022-12-31T11:00:25.057Z,11.67
2022-12-31T11:06:32.656Z,11.72
2022-12-31T11:11:49.346Z,11.78
2022-12-31T11:17:14.460Z,11.83
2022-12-31T11:22:47.448Z,11.88
2022-12-31T11:28:25.178Z,11.93
2022-12-31T11:33:50.156Z,11.99
2022-12-31T11:39:30.815Z,12.24
2022-12-31T11:44:52.784Z,12.49
2022-12-31T11:50:20.034Z,12.64
2022-12-31T11:55:54.264Z,12.71
2022-12-31T12:01:07.355Z,12.78
2022-12-31T12:06:18.668Z,12.93
2022-12-31T12:11:33.097Z,13.11
2022-12-31T12:16:42.149Z,13.54
2022-12-31T12:21:51.613Z,14.28
2022-12-31T12:27:00.717Z,15.19
2022-12-31T12:32:17.920Z,15.66
2022-12-31T12:37:36.506Z,16.06
2022-12-31T12:42:52.833Z,15.58
2022-12-31T12:48:04.254Z,14.15
2022-12-31T12:53:28.355Z,13.50
2022-12-31T12:58:51.903Z,13.46
2022-12-31T13:04:35.779Z,13.36
2022-12-31T13:09:57.526Z,13.27
2022-12-31T13:15:15.114Z,13.18
2022-12-31T13:20:30.283Z,13.11
2022-12-31T13:25:50.687Z,13.07
2022-12-31T13:31:06.814Z,13.04
2022-12-31T13:36:19.025Z,13.03
2022-12-31T13:41:33.495Z,13.02
2022-12-31T13:46:46.866Z,13.02
2022-12-31T13:52:00.652Z,13.02
2022-12-31T13:57:20.682Z,13.05
2022-12-31T14:02:38.957Z,13.07
2022-12-31T14:07:53.426Z,13.09
2022-12-31T14:13:07.783Z,13.12
2022-12-31T14:18:22.742Z,13.17
2022-12-31T14:23:42.238Z,13.22
2022-12-31T14:29:01.767Z,13.29
2022-12-31T14:34:14.634Z,13.33
2022-12-31T14:39:37.838Z,13.38
2022-12-31T14:45:00.114Z,13.43
2022-12-31T14:50:12.097Z,13.48
2022-12-31T14:55:29.350Z,13.52
2022-12-31T15:00:40.985Z,13.60
2022-12-31T15:05:59.818Z,13.68
2022-12-31T15:11:33.325Z,13.75
2022-12-31T15:16:55.487Z,13.81
2022-12-31T15:22:14.462Z,13.85
2022-12-31T15:27:36.436Z,13.85
2022-12-31T15:32:48.942Z,13.87
2022-12-31T15:38:05.365Z,13.90
2022-12-31T15:43:20.116Z,13.95
2022-12-31T15:48:33.952Z,14.05
2022-12-31T15:53:44.000Z,14.16
2022-12-31T15:58:59.466Z,14.26
2022-12-31T16:04:09.755Z,14.37
2022-12-31T16:09:27.045Z,14.45
2022-12-31T16:14:41.123Z,14.53
2022-12-31T16:19:49.352Z,14.59
2022-12-31T16:25:29.780Z,14.64
2022-12-31T16:30:31.206Z,14.68
2022-12-31T16:35:40.162Z,14.71
2022-12-31T16:41:10.825Z,14.74
2022-12-31T16:46:26.931Z,14.77
2022-12-31T16:51:39.497Z,14.80
2022-12-31T16:56:47.928Z,14.82
2022-12-31T17:01:58.221Z,14.80
2022-12-31T17:07:39.442Z,14.79
2022-12-31T17:13:26.814Z,14.81
2022-12-31T17:18:23.705Z,14.83
2022-12-31T17:23:34.884Z,14.86
2022-12-31T17:28:47.996Z,14.89
2022-12-31T17:34:06.287Z,14.93
2022-12-31T17:39:24.532Z,14.93
2022-12-31T17:44:34.412Z,14.96
2022-12-31T17:49:45.201Z,14.95
2022-12-31T17:54:53.980Z,14.99
2022-12-31T18:00:05.895Z,15.04
2022-12-31T18:05:23.429Z,15.10
2022-12-31T18:10:36.960Z,15.14
2022-12-31T18:15:45.528Z,15.19
2022-12-31T18:20:56.489Z,15.24
2022-12-31T18:26:05.367Z,15.27
2022-12-31T18:31:18.883Z,15.31
2022-12-31T18:36:29.761Z,15.34
2022-12-31T18:41:43.211Z,15.37
2022-12-31T18:46:51.543Z,15.41
2022-12-31T18:52:01.565Z,15.46
2022-12-31T18:57:11.235Z,15.48
2022-12-31T19:02:22.457Z,15.55
2022-12-31T19:07:29.606Z,15.61
2022-12-31T19:12:37.709Z,15.67
2022-12-31T19:17:46.741Z,15.70
2022-12-31T19:22:54.641Z,15.76
2022-12-31T19:28:02.720Z,15.82
2022-12-31T19:33:10.903Z,15.87
2022-12-31T19:38:23.585Z,15.93
2022-12-31T19:43:32.024Z,15.98
2022-12-31T19:48:40.783Z,16.03
2022-12-31T19:53:50.971Z,16.07
2022-12-31T19:58:59.255Z,16.12
2022-12-31T20:04:07.796Z,16.16
2022-12-31T20:09:18.396Z,16.20
2022-12-31T20:14:27.298Z,16.25
2022-12-31T20:19:36.408Z,16.28
2022-12-31T20:24:44.798Z,16.30
2022-12-31T20:29:53.525Z,16.30
2022-12-31T20:35:01.678Z,16.31
2022-12-31T20:40:11.820Z,16.33
2022-12-31T20:45:20.310Z,16.35
2022-12-31T20:50:28.456Z,16.37
2022-12-31T20:55:39.041Z,16.38
2022-12-31T21:00:51.984Z,16.39
2022-12-31T21:06:01.001Z,16.39
2022-12-31T21:11:32.058Z,16.40
2022-12-31T21:16:40.984Z,16.59
2022-12-31T21:21:50.237Z,17.04
2022-12-31T21:27:00.181Z,17.58
2022-12-31T21:32:08.655Z,17.93
2022-12-31T21:37:17.887Z,18.19
2022-12-31T21:42:26.594Z,18.39
2022-12-31T21:47:51.803Z,18.51
2022-12-31T21:53:00.073Z,18.63
2022-12-31T22:03:37.342Z,18.35
2022-12-31T22:08:47.955Z,17.28
2022-12-31T22:13:57.090Z,17.07
2022-12-31T22:19:05.443Z,17.62
2022-12-31T22:24:14.292Z,17.76
2022-12-31T22:29:24.004Z,17.81
2022-12-31T22:34:31.173Z,17.76
2022-12-31T22:39:43.242Z,17.83
2022-12-31T22:44:52.884Z,17.84
2022-12-31T22:50:01.088Z,17.89
2022-12-31T22:55:10.581Z,17.88
2022-12-31T23:00:20.087Z,17.85
2022-12-31T23:05:29.023Z,17.88
2022-12-31T23:10:52.112Z,18.29
2022-12-31T23:16:18.320Z,19.00
2022-12-31T23:21:43.173Z,18.36
2022-12-31T23:26:51.738Z,17.28
2022-12-31T23:32:00.048Z,16.65
2022-12-31T23:37:08.873Z,16.66
2022-12-31T23:42:17.575Z,17.62
2022-12-31T23:47:25.730Z,18.18
2022-12-31T23:52:33.931Z,18.54
2022-12-31T23:57:42.297Z,18.05
